WetterOnline ( https://www.wetteronline.de )

Wetter aktuell Bitz

Aktuelles Wetter: Messstetten (900m)

6-stündlich | Neueste Meldungen
Ortszeit Temperatur Wetter
Di, 15.10. 20:00 9.2° C leichter Regen
Di, 15.10. 14:00 12.9° C wolkig
Di, 15.10. 8:00 10.2° C wolkenlos
Di, 15.10. 2:00 8.5° C wolkig
Mo, 14.10. 20:00 13.3° C wolkenlos
Mo, 14.10. 14:00 20.3° C wolkenlos
Mo, 14.10. 8:00 10.5° C wolkenlos
Mo, 14.10. 2:00 8.3° C wolkenlos
Ortszeit Temperatur Wetter
Di, 15.10. 23:00 8.3° C leichter Regen
Di, 15.10. 22:40 8.3° C Sprühregen
Di, 15.10. 22:30 8.4° C Sprühregen
Di, 15.10. 22:20 8.4° C Sprühregen
Di, 15.10. 22:10 8.3° C Sprühregen
Di, 15.10. 22:00 8.5° C Sprühregen
Di, 15.10. 21:50 8.5° C Sprühregen
Di, 15.10. 21:30 8.8° C Sprühregen
Di, 15.10. 21:00 9.1° C leichter Regen
Di, 15.10. 19:00 9.6° C leichter Regen
Ortszeit Relative Feuchte Sichtweite
Di, 15.10. 20:00 96% 9 km
Di, 15.10. 14:00 81% 35 km
Di, 15.10. 8:00 71% 9 km
Di, 15.10. 2:00 90% 35 km
Mo, 14.10. 20:00 89% 20 km
Mo, 14.10. 14:00 47% >70 km
Mo, 14.10. 8:00 90% 35 km
Mo, 14.10. 2:00 95% 8 km
Ortszeit Relative Feuchte Sichtweite
Di, 15.10. 23:00 94% 22 km
Di, 15.10. 22:40 93% -
Di, 15.10. 22:30 92% 18 km
Di, 15.10. 22:20 92% -
Di, 15.10. 22:10 92% -
Di, 15.10. 22:00 91% 13 km
Di, 15.10. 21:50 91% -
Di, 15.10. 21:30 91% 24 km
Di, 15.10. 21:00 93% 22 km
Di, 15.10. 19:00 94% 15 km
Ortszeit Niederschlagsmenge Niederschlagsart
Di, 15.10. 20:00 5 l/m2 in 12 Std. Regen
Di, 15.10. 14:00 0.0 l/m2 in 6 Std. -
Di, 15.10. 8:00 0.0 l/m2 in 12 Std. -
Di, 15.10. 2:00 0.0 l/m2 in 6 Std. -
Mo, 14.10. 20:00 0.0 l/m2 in 12 Std. -
Mo, 14.10. 14:00 0.0 l/m2 in 6 Std. -
Mo, 14.10. 8:00 0.0 l/m2 in 12 Std. -
Mo, 14.10. 2:00 0.0 l/m2 in 6 Std. -
Ortszeit Niederschlagsmenge Niederschlagsart
Di, 15.10. 23:00 0.3 l/m2 in 1 Std. Regen
Di, 15.10. 22:40 keine Meldung -
Di, 15.10. 22:30 0.1 l/m2 in 1 Std. -
Di, 15.10. 22:20 keine Meldung -
Di, 15.10. 22:10 keine Meldung -
Di, 15.10. 22:00 0.4 l/m2 in 1 Std. Regen
Di, 15.10. 21:50 keine Meldung -
Di, 15.10. 21:30 0.1 l/m2 in 1 Std. -
Di, 15.10. 21:00 0.5 l/m2 in 1 Std. Regen
Di, 15.10. 19:00 keine Meldung -
Ortszeit Stärke Spitze Richtung
km/h Bft. km/h Grad Sektor
Di, 15.10. 20:00 7 2 36 260° W
Di, 15.10. 14:00 20 4 35 290° W
Di, 15.10. 8:00 11 2 18 90° O
Di, 15.10. 2:00 4 1 11 70° O
Mo, 14.10. 20:00 7 2 18 100° O
Mo, 14.10. 14:00 11 2 22 130° SO
Mo, 14.10. 8:00 4 1 11 100° O
Mo, 14.10. 2:00 4 1 11 110° O
Ortszeit Stärke Spitze Richtung
km/h Bft. km/h Grad Sektor
Di, 15.10. 23:00 11 2 36 220° SW
Di, 15.10. 22:40 13 3 - 230° SW
Di, 15.10. 22:30 18 3 36 260° W
Di, 15.10. 22:20 18 3 - 260° W
Di, 15.10. 22:10 18 3 - 260° W
Di, 15.10. 22:00 18 3 36 260° W
Di, 15.10. 21:50 18 3 - 260° W
Di, 15.10. 21:30 17 3 28 250° W
Di, 15.10. 21:00 13 3 24 250° W
Di, 15.10. 19:00 11 2 18 280° W
Ortszeit Untergrenze Bedeckung Gattung
total tief tief mittel hoch
Di, 15.10. 20:00 210 m 7/8 7/8 - - -
Di, 15.10. 14:00 390 m 8/8 1/8 - - -
Di, 15.10. 8:00 - 0/8 0/8 - - -
Di, 15.10. 2:00 7800 m 8/8 0/8 - - -
Mo, 14.10. 20:00 - 0/8 0/8 - - -
Mo, 14.10. 14:00 - 0/8 0/8 - - -
Mo, 14.10. 8:00 - 0/8 0/8 - - -
Mo, 14.10. 2:00 - 0/8 0/8 - - -
Ortszeit Bedeckungsgrad in Achtel und Wolkenuntergrenze
Di, 15.10. 23:00 7(300m) 8(1290m) 8(2100m)
Di, 15.10. 22:40 7(330m) 8(1290m) 8(2100m)
Di, 15.10. 22:30 4(330m) 8(1500m) 8(2700m)
Di, 15.10. 22:20 4(330m) 8(1500m) 8(2700m)
Di, 15.10. 22:10 3(300m) 8(2100m) 8(2700m)
Di, 15.10. 22:00 4(360m) 8(2100m) 8(2700m)
Di, 15.10. 21:50 4(360m) 8(2100m) 8(2700m)
Di, 15.10. 21:30 3(90m) 7(1470m) 8(2100m)
Di, 15.10. 21:00 2(210m) 7(780m) 8(1800m)
Di, 15.10. 19:00 4(210m) 7(1260m) 8(1800m)
Ortszeit Stationsdruck (hPa) Tendenz (hPa in 3 Std.)
Di, 15.10. 20:00 908 + 2,0
Di, 15.10. 14:00 906 + 0,2
Di, 15.10. 8:00 906 - 1,7
Di, 15.10. 2:00 910 - 0,9
Mo, 14.10. 20:00 911 - 0,8
Mo, 14.10. 14:00 913 - 0,9
Mo, 14.10. 8:00 914 - 0,7
Mo, 14.10. 2:00 916 + 0,2
Ortszeit Stationsdruck (hPa) Tendenz (hPa in 3 Std.)
Di, 15.10. 23:00 910 + 2,0
Di, 15.10. 22:40 910 keine Meldung
Di, 15.10. 22:30 910 + 1,7
Di, 15.10. 22:20 910 keine Meldung
Di, 15.10. 22:10 909 keine Meldung
Di, 15.10. 22:00 909 + 1,7
Di, 15.10. 21:50 909 keine Meldung
Di, 15.10. 21:30 909 + 1,9
Di, 15.10. 21:00 909 + 2,1
Di, 15.10. 19:00 907 + 1,2
Ortszeit Schneehöhe (cm)
Di, 15.10. 20:00 0
Di, 15.10. 14:00 0
Di, 15.10. 8:00 0
Di, 15.10. 2:00 0
Mo, 14.10. 20:00 0
Mo, 14.10. 14:00 0
Mo, 14.10. 8:00 0
Mo, 14.10. 2:00 0
Ortszeit Schneehöhe (cm)
Di, 15.10. 23:00 0
Di, 15.10. 22:40 0
Di, 15.10. 22:30 0
Di, 15.10. 22:20 0
Di, 15.10. 22:10 0
Di, 15.10. 22:00 0
Di, 15.10. 21:50 0
Di, 15.10. 21:30 0
Di, 15.10. 21:00 0
Di, 15.10. 19:00 -
Link zu dieser Seite / Seite empfehlen

Das Wetter in ...